sensor_id;sensor_type;location;lat;lon;timestamp;temperature;humidity
24148;DHT22;12309;51.450;-2.624;2024-03-06T00:01:47;4.50;99.90
24148;DHT22;12309;51.450;-2.624;2024-03-06T00:04:13;4.30;99.90
24148;DHT22;12309;51.450;-2.624;2024-03-06T00:06:39;4.50;99.90
24148;DHT22;12309;51.450;-2.624;2024-03-06T00:11:30;4.30;99.90
24148;DHT22;12309;51.450;-2.624;2024-03-06T00:13:56;4.30;99.90
24148;DHT22;12309;51.450;-2.624;2024-03-06T00:16:22;3.70;99.90
24148;DHT22;12309;51.450;-2.624;2024-03-06T00:21:13;4.40;99.90
24148;DHT22;12309;51.450;-2.624;2024-03-06T00:23:39;4.10;99.90
24148;DHT22;12309;51.450;-2.624;2024-03-06T00:26:05;3.90;99.90
24148;DHT22;12309;51.450;-2.624;2024-03-06T00:28:30;3.90;99.90
24148;DHT22;12309;51.450;-2.624;2024-03-06T00:30:56;3.80;99.90
24148;DHT22;12309;51.450;-2.624;2024-03-06T00:33:23;4.00;99.90
24148;DHT22;12309;51.450;-2.624;2024-03-06T00:35:48;3.90;99.90
24148;DHT22;12309;51.450;-2.624;2024-03-06T00:38:15;3.90;99.90
24148;DHT22;12309;51.450;-2.624;2024-03-06T00:40:40;3.60;99.90
24148;DHT22;12309;51.450;-2.624;2024-03-06T00:43:06;3.50;99.90
24148;DHT22;12309;51.450;-2.624;2024-03-06T00:45:31;3.90;99.90
24148;DHT22;12309;51.450;-2.624;2024-03-06T00:47:57;3.70;99.90
24148;DHT22;12309;51.450;-2.624;2024-03-06T00:50:23;3.50;99.90
24148;DHT22;12309;51.450;-2.624;2024-03-06T00:52:49;3.70;99.90
24148;DHT22;12309;51.450;-2.624;2024-03-06T00:55:15;3.70;99.90
24148;DHT22;12309;51.450;-2.624;2024-03-06T00:57:41;3.70;99.90
24148;DHT22;12309;51.450;-2.624;2024-03-06T01:00:07;3.70;99.90
24148;DHT22;12309;51.450;-2.624;2024-03-06T01:02:39;2.90;99.90
24148;DHT22;12309;51.450;-2.624;2024-03-06T01:05:06;3.10;99.90
24148;DHT22;12309;51.450;-2.624;2024-03-06T01:07:33;3.40;99.90
24148;DHT22;12309;51.450;-2.624;2024-03-06T01:09:59;3.30;99.90
24148;DHT22;12309;51.450;-2.624;2024-03-06T01:12:25;2.50;99.90
24148;DHT22;12309;51.450;-2.624;2024-03-06T01:17:17;3.40;99.90
24148;DHT22;12309;51.450;-2.624;2024-03-06T01:22:09;3.40;99.90
24148;DHT22;12309;51.450;-2.624;2024-03-06T01:24:35;3.10;99.90
24148;DHT22;12309;51.450;-2.624;2024-03-06T01:29:28;3.30;99.90
24148;DHT22;12309;51.450;-2.624;2024-03-06T01:31:54;3.50;99.90
24148;DHT22;12309;51.450;-2.624;2024-03-06T01:34:20;3.50;99.90
24148;DHT22;12309;51.450;-2.624;2024-03-06T01:36:45;3.20;99.90
24148;DHT22;12309;51.450;-2.624;2024-03-06T01:39:11;3.40;99.90
24148;DHT22;12309;51.450;-2.624;2024-03-06T01:44:03;3.40;99.90
24148;DHT22;12309;51.450;-2.624;2024-03-06T01:46:29;3.70;99.90
24148;DHT22;12309;51.450;-2.624;2024-03-06T01:48:55;3.50;99.90
24148;DHT22;12309;51.450;-2.624;2024-03-06T01:51:21;3.50;99.90
24148;DHT22;12309;51.450;-2.624;2024-03-06T01:53:47;3.70;99.90
24148;DHT22;12309;51.450;-2.624;2024-03-06T01:56:13;3.50;99.90
24148;DHT22;12309;51.450;-2.624;2024-03-06T01:58:44;4.30;99.90
24148;DHT22;12309;51.450;-2.624;2024-03-06T02:01:12;3.40;99.90
24148;DHT22;12309;51.450;-2.624;2024-03-06T02:03:38;3.60;99.90
24148;DHT22;12309;51.450;-2.624;2024-03-06T02:06:05;3.60;99.90
24148;DHT22;12309;51.450;-2.624;2024-03-06T02:08:30;3.50;99.90
24148;DHT22;12309;51.450;-2.624;2024-03-06T02:10:57;3.40;99.90
24148;DHT22;12309;51.450;-2.624;2024-03-06T02:13:23;3.70;99.90
24148;DHT22;12309;51.450;-2.624;2024-03-06T02:15:49;3.60;99.90
24148;DHT22;12309;51.450;-2.624;2024-03-06T02:18:15;3.40;99.90
24148;DHT22;12309;51.450;-2.624;2024-03-06T02:20:40;3.60;99.90
24148;DHT22;12309;51.450;-2.624;2024-03-06T02:23:06;3.60;99.90
24148;DHT22;12309;51.450;-2.624;2024-03-06T02:25:32;3.50;99.90
24148;DHT22;12309;51.450;-2.624;2024-03-06T02:27:58;3.50;99.90
24148;DHT22;12309;51.450;-2.624;2024-03-06T02:30:24;3.50;99.90
24148;DHT22;12309;51.450;-2.624;2024-03-06T02:32:50;3.60;99.90
24148;DHT22;12309;51.450;-2.624;2024-03-06T02:37:43;3.90;99.90
24148;DHT22;12309;51.450;-2.624;2024-03-06T02:40:12;3.60;99.90
24148;DHT22;12309;51.450;-2.624;2024-03-06T02:42:38;3.60;99.90
24148;DHT22;12309;51.450;-2.624;2024-03-06T02:45:05;3.50;99.90
24148;DHT22;12309;51.450;-2.624;2024-03-06T02:47:32;3.70;99.90
24148;DHT22;12309;51.450;-2.624;2024-03-06T02:49:58;4.00;99.90
24148;DHT22;12309;51.450;-2.624;2024-03-06T02:52:23;3.80;99.90
24148;DHT22;12309;51.450;-2.624;2024-03-06T02:54:49;4.00;99.90
24148;DHT22;12309;51.450;-2.624;2024-03-06T02:57:14;3.60;99.90
24148;DHT22;12309;51.450;-2.624;2024-03-06T02:59:40;3.30;99.90
24148;DHT22;12309;51.450;-2.624;2024-03-06T03:02:06;3.40;99.90
24148;DHT22;12309;51.450;-2.624;2024-03-06T03:04:32;3.30;99.90
24148;DHT22;12309;51.450;-2.624;2024-03-06T03:06:57;3.20;99.90
24148;DHT22;12309;51.450;-2.624;2024-03-06T03:09:23;3.50;99.90
24148;DHT22;12309;51.450;-2.624;2024-03-06T03:11:49;3.10;99.90
24148;DHT22;12309;51.450;-2.624;2024-03-06T03:14:15;3.00;99.90
24148;DHT22;12309;51.450;-2.624;2024-03-06T03:16:40;3.10;99.90
24148;DHT22;12309;51.450;-2.624;2024-03-06T03:21:34;2.70;99.90
24148;DHT22;12309;51.450;-2.624;2024-03-06T03:23:59;2.90;99.90
24148;DHT22;12309;51.450;-2.624;2024-03-06T03:26:25;2.90;99.90
24148;DHT22;12309;51.450;-2.624;2024-03-06T03:28:51;2.80;99.90
24148;DHT22;12309;51.450;-2.624;2024-03-06T03:33:43;2.90;99.90
24148;DHT22;12309;51.450;-2.624;2024-03-06T03:36:09;3.00;99.90
24148;DHT22;12309;51.450;-2.624;2024-03-06T03:38:38;3.10;99.90
24148;DHT22;12309;51.450;-2.624;2024-03-06T03:41:13;2.90;99.90
24148;DHT22;12309;51.450;-2.624;2024-03-06T03:43:40;2.60;99.90
24148;DHT22;12309;51.450;-2.624;2024-03-06T03:46:06;2.70;99.90
24148;DHT22;12309;51.450;-2.624;2024-03-06T03:48:32;2.70;99.90
24148;DHT22;12309;51.450;-2.624;2024-03-06T03:51:02;2.50;99.90
24148;DHT22;12309;51.450;-2.624;2024-03-06T03:55:55;2.70;99.90
24148;DHT22;12309;51.450;-2.624;2024-03-06T04:00:47;2.50;99.90
24148;DHT22;12309;51.450;-2.624;2024-03-06T04:03:12;2.40;99.90
24148;DHT22;12309;51.450;-2.624;2024-03-06T04:05:39;2.40;99.90
24148;DHT22;12309;51.450;-2.624;2024-03-06T04:08:05;2.40;99.90
24148;DHT22;12309;51.450;-2.624;2024-03-06T04:12:59;2.50;99.90
24148;DHT22;12309;51.450;-2.624;2024-03-06T04:15:25;2.40;99.90
24148;DHT22;12309;51.450;-2.624;2024-03-06T04:17:51;2.60;99.90
24148;DHT22;12309;51.450;-2.624;2024-03-06T04:22:44;2.50;99.90
24148;DHT22;12309;51.450;-2.624;2024-03-06T04:27:37;2.40;99.90
24148;DHT22;12309;51.450;-2.624;2024-03-06T04:30:04;2.40;99.90
24148;DHT22;12309;51.450;-2.624;2024-03-06T04:32:30;2.40;99.90
24148;DHT22;12309;51.450;-2.624;2024-03-06T04:37:22;2.30;99.90
24148;DHT22;12309;51.450;-2.624;2024-03-06T04:39:48;2.30;99.90
24148;DHT22;12309;51.450;-2.624;2024-03-06T04:42:13;2.20;99.90
24148;DHT22;12309;51.450;-2.624;2024-03-06T04:44:39;2.30;99.90
24148;DHT22;12309;51.450;-2.624;2024-03-06T04:47:05;3.20;99.90
24148;DHT22;12309;51.450;-2.624;2024-03-06T04:49:34;2.30;99.90
24148;DHT22;12309;51.450;-2.624;2024-03-06T04:51:59;2.10;99.90
24148;DHT22;12309;51.450;-2.624;2024-03-06T04:54:26;2.20;99.90
24148;DHT22;12309;51.450;-2.624;2024-03-06T04:56:51;1.80;99.90
24148;DHT22;12309;51.450;-2.624;2024-03-06T04:59:17;2.20;99.90
24148;DHT22;12309;51.450;-2.624;2024-03-06T05:04:09;2.10;99.90
24148;DHT22;12309;51.450;-2.624;2024-03-06T05:06:37;2.00;99.90
24148;DHT22;12309;51.450;-2.624;2024-03-06T05:09:03;2.20;99.90
24148;DHT22;12309;51.450;-2.624;2024-03-06T05:11:29;2.50;99.90
24148;DHT22;12309;51.450;-2.624;2024-03-06T05:13:57;2.20;99.90
24148;DHT22;12309;51.450;-2.624;2024-03-06T05:16:23;2.20;99.90
24148;DHT22;12309;51.450;-2.624;2024-03-06T05:18:49;2.40;99.90
24148;DHT22;12309;51.450;-2.624;2024-03-06T05:21:15;2.80;99.90
24148;DHT22;12309;51.450;-2.624;2024-03-06T05:23:41;2.10;99.90
24148;DHT22;12309;51.450;-2.624;2024-03-06T05:26:07;2.10;99.90
24148;DHT22;12309;51.450;-2.624;2024-03-06T05:28:33;2.10;99.90
24148;DHT22;12309;51.450;-2.624;2024-03-06T05:30:59;1.90;99.90
24148;DHT22;12309;51.450;-2.624;2024-03-06T05:33:26;2.00;99.90
24148;DHT22;12309;51.450;-2.624;2024-03-06T05:35:53;2.00;99.90
24148;DHT22;12309;51.450;-2.624;2024-03-06T05:40:47;1.80;99.90
24148;DHT22;12309;51.450;-2.624;2024-03-06T05:43:13;1.30;99.90
24148;DHT22;12309;51.450;-2.624;2024-03-06T05:50:31;1.60;99.90
24148;DHT22;12309;51.450;-2.624;2024-03-06T05:52:57;1.70;99.90
24148;DHT22;12309;51.450;-2.624;2024-03-06T05:55:23;1.30;99.90
24148;DHT22;12309;51.450;-2.624;2024-03-06T05:57:49;1.60;99.90
24148;DHT22;12309;51.450;-2.624;2024-03-06T06:00:15;1.30;99.90
24148;DHT22;12309;51.450;-2.624;2024-03-06T06:02:43;1.50;99.90
24148;DHT22;12309;51.450;-2.624;2024-03-06T06:05:10;1.70;99.90
24148;DHT22;12309;51.450;-2.624;2024-03-06T06:10:04;1.90;99.90
24148;DHT22;12309;51.450;-2.624;2024-03-06T06:12:33;1.60;99.90
24148;DHT22;12309;51.450;-2.624;2024-03-06T06:14:59;1.20;99.90
24148;DHT22;12309;51.450;-2.624;2024-03-06T06:17:25;1.40;99.90
24148;DHT22;12309;51.450;-2.624;2024-03-06T06:19:51;1.40;99.90
24148;DHT22;12309;51.450;-2.624;2024-03-06T06:24:42;1.40;99.90
24148;DHT22;12309;51.450;-2.624;2024-03-06T06:27:08;1.30;99.90
24148;DHT22;12309;51.450;-2.624;2024-03-06T06:29:34;1.40;99.90
24148;DHT22;12309;51.450;-2.624;2024-03-06T06:31:59;1.80;99.90
24148;DHT22;12309;51.450;-2.624;2024-03-06T06:34:25;1.40;99.90
24148;DHT22;12309;51.450;-2.624;2024-03-06T06:36:53;0.80;99.90
24148;DHT22;12309;51.450;-2.624;2024-03-06T06:39:19;1.40;99.90
24148;DHT22;12309;51.450;-2.624;2024-03-06T06:41:44;1.20;99.90
24148;DHT22;12309;51.450;-2.624;2024-03-06T06:44:10;1.40;99.90
24148;DHT22;12309;51.450;-2.624;2024-03-06T06:46:36;1.40;99.90
24148;DHT22;12309;51.450;-2.624;2024-03-06T06:49:01;1.50;99.90
24148;DHT22;12309;51.450;-2.624;2024-03-06T06:53:53;1.40;99.90
24148;DHT22;12309;51.450;-2.624;2024-03-06T06:56:21;1.40;99.90
24148;DHT22;12309;51.450;-2.624;2024-03-06T06:58:49;1.50;99.90
24148;DHT22;12309;51.450;-2.624;2024-03-06T07:01:15;1.20;99.90
24148;DHT22;12309;51.450;-2.624;2024-03-06T07:03:42;1.50;99.90
24148;DHT22;12309;51.450;-2.624;2024-03-06T07:06:08;1.60;99.90
24148;DHT22;12309;51.450;-2.624;2024-03-06T07:08:34;1.50;99.90
24148;DHT22;12309;51.450;-2.624;2024-03-06T07:10:59;1.60;99.90
24148;DHT22;12309;51.450;-2.624;2024-03-06T07:13:25;1.30;99.90
24148;DHT22;12309;51.450;-2.624;2024-03-06T07:15:51;1.20;99.90
24148;DHT22;12309;51.450;-2.624;2024-03-06T07:18:17;1.70;99.90
24148;DHT22;12309;51.450;-2.624;2024-03-06T07:20:42;1.50;99.90
24148;DHT22;12309;51.450;-2.624;2024-03-06T07:25:34;1.20;99.90
24148;DHT22;12309;51.450;-2.624;2024-03-06T07:30:26;1.40;99.90
24148;DHT22;12309;51.450;-2.624;2024-03-06T07:32:51;1.50;99.90
24148;DHT22;12309;51.450;-2.624;2024-03-06T07:35:18;2.00;99.90
24148;DHT22;12309;51.450;-2.624;2024-03-06T07:37:43;1.50;99.90
24148;DHT22;12309;51.450;-2.624;2024-03-06T07:40:10;1.50;99.90
24148;DHT22;12309;51.450;-2.624;2024-03-06T07:45:04;2.80;99.90
24148;DHT22;12309;51.450;-2.624;2024-03-06T07:49:56;2.10;99.90
24148;DHT22;12309;51.450;-2.624;2024-03-06T07:52:21;2.20;99.90
24148;DHT22;12309;51.450;-2.624;2024-03-06T07:54:47;2.30;99.90
24148;DHT22;12309;51.450;-2.624;2024-03-06T07:57:13;2.20;99.90
24148;DHT22;12309;51.450;-2.624;2024-03-06T07:59:39;2.30;99.90
24148;DHT22;12309;51.450;-2.624;2024-03-06T08:02:05;2.40;99.90
24148;DHT22;12309;51.450;-2.624;2024-03-06T08:04:32;2.40;99.90
24148;DHT22;12309;51.450;-2.624;2024-03-06T08:09:24;2.50;99.90
24148;DHT22;12309;51.450;-2.624;2024-03-06T08:11:51;3.20;99.90
24148;DHT22;12309;51.450;-2.624;2024-03-06T08:14:19;2.70;99.90
24148;DHT22;12309;51.450;-2.624;2024-03-06T08:16:45;2.70;99.90
24148;DHT22;12309;51.450;-2.624;2024-03-06T08:19:11;3.20;99.90
24148;DHT22;12309;51.450;-2.624;2024-03-06T08:26:29;3.70;99.90
24148;DHT22;12309;51.450;-2.624;2024-03-06T08:28:55;3.60;99.90
24148;DHT22;12309;51.450;-2.624;2024-03-06T08:31:20;3.80;99.90
24148;DHT22;12309;51.450;-2.624;2024-03-06T08:33:47;3.70;99.90
24148;DHT22;12309;51.450;-2.624;2024-03-06T08:36:13;5.00;99.90
24148;DHT22;12309;51.450;-2.624;2024-03-06T08:38:39;6.90;99.90
24148;DHT22;12309;51.450;-2.624;2024-03-06T08:41:06;8.90;99.90
24148;DHT22;12309;51.450;-2.624;2024-03-06T08:43:32;9.10;99.90
24148;DHT22;12309;51.450;-2.624;2024-03-06T08:45:57;10.70;99.90
24148;DHT22;12309;51.450;-2.624;2024-03-06T08:48:23;8.60;99.90
24148;DHT22;12309;51.450;-2.624;2024-03-06T08:50:49;9.20;99.90
24148;DHT22;12309;51.450;-2.624;2024-03-06T08:53:16;8.50;99.90
24148;DHT22;12309;51.450;-2.624;2024-03-06T08:55:42;8.00;99.90
24148;DHT22;12309;51.450;-2.624;2024-03-06T08:58:07;7.20;99.90
24148;DHT22;12309;51.450;-2.624;2024-03-06T09:00:34;7.20;99.90
24148;DHT22;12309;51.450;-2.624;2024-03-06T09:03:00;8.60;99.90
24148;DHT22;12309;51.450;-2.624;2024-03-06T09:05:26;10.00;99.90
24148;DHT22;12309;51.450;-2.624;2024-03-06T09:07:52;9.60;99.90
24148;DHT22;12309;51.450;-2.624;2024-03-06T09:10:17;9.00;99.90
24148;DHT22;12309;51.450;-2.624;2024-03-06T09:12:44;8.90;99.90
24148;DHT22;12309;51.450;-2.624;2024-03-06T09:15:11;9.00;99.90
24148;DHT22;12309;51.450;-2.624;2024-03-06T09:17:37;8.60;99.90
24148;DHT22;12309;51.450;-2.624;2024-03-06T09:20:04;8.20;99.90
24148;DHT22;12309;51.450;-2.624;2024-03-06T09:22:36;8.00;99.90
24148;DHT22;12309;51.450;-2.624;2024-03-06T09:25:02;7.90;99.90
24148;DHT22;12309;51.450;-2.624;2024-03-06T09:27:27;7.90;99.90
24148;DHT22;12309;51.450;-2.624;2024-03-06T09:29:53;8.30;99.90
24148;DHT22;12309;51.450;-2.624;2024-03-06T09:32:19;8.00;99.90
24148;DHT22;12309;51.450;-2.624;2024-03-06T09:37:11;8.00;99.90
24148;DHT22;12309;51.450;-2.624;2024-03-06T09:39:36;8.30;99.90
24148;DHT22;12309;51.450;-2.624;2024-03-06T09:42:02;10.60;99.90
24148;DHT22;12309;51.450;-2.624;2024-03-06T09:44:29;10.40;99.90
24148;DHT22;12309;51.450;-2.624;2024-03-06T09:46:54;9.40;99.90
24148;DHT22;12309;51.450;-2.624;2024-03-06T09:49:22;9.30;99.90
24148;DHT22;12309;51.450;-2.624;2024-03-06T09:51:49;9.20;99.90
24148;DHT22;12309;51.450;-2.624;2024-03-06T09:54:21;8.80;99.90
24148;DHT22;12309;51.450;-2.624;2024-03-06T09:56:49;8.90;99.90
24148;DHT22;12309;51.450;-2.624;2024-03-06T09:59:15;9.60;99.90
24148;DHT22;12309;51.450;-2.624;2024-03-06T10:01:54;11.90;99.90
24148;DHT22;12309;51.450;-2.624;2024-03-06T10:04:21;10.80;99.90
24148;DHT22;12309;51.450;-2.624;2024-03-06T10:06:48;10.00;99.90
24148;DHT22;12309;51.450;-2.624;2024-03-06T10:09:17;10.00;99.90
24148;DHT22;12309;51.450;-2.624;2024-03-06T10:11:42;10.00;99.90
24148;DHT22;12309;51.450;-2.624;2024-03-06T10:14:08;9.90;99.90
24148;DHT22;12309;51.450;-2.624;2024-03-06T10:16:35;10.00;99.90
24148;DHT22;12309;51.450;-2.624;2024-03-06T10:19:18;9.20;99.90
24148;DHT22;12309;51.450;-2.624;2024-03-06T10:21:46;9.20;99.90
24148;DHT22;12309;51.450;-2.624;2024-03-06T10:24:12;9.20;99.90
24148;DHT22;12309;51.450;-2.624;2024-03-06T10:29:04;9.50;99.90
24148;DHT22;12309;51.450;-2.624;2024-03-06T10:31:29;10.20;99.90
24148;DHT22;12309;51.450;-2.624;2024-03-06T10:33:55;11.50;99.90
24148;DHT22;12309;51.450;-2.624;2024-03-06T10:36:21;11.10;99.90
24148;DHT22;12309;51.450;-2.624;2024-03-06T10:38:48;11.40;99.90
24148;DHT22;12309;51.450;-2.624;2024-03-06T10:41:19;11.10;99.90
24148;DHT22;12309;51.450;-2.624;2024-03-06T10:43:49;11.20;99.90
24148;DHT22;12309;51.450;-2.624;2024-03-06T10:46:19;12.30;99.90
24148;DHT22;12309;51.450;-2.624;2024-03-06T10:48:46;13.80;99.90
24148;DHT22;12309;51.450;-2.624;2024-03-06T10:51:16;15.60;99.90
24148;DHT22;12309;51.450;-2.624;2024-03-06T10:53:43;15.70;99.90
24148;DHT22;12309;51.450;-2.624;2024-03-06T10:56:10;12.80;99.90
24148;DHT22;12309;51.450;-2.624;2024-03-06T10:58:36;11.90;99.90
24148;DHT22;12309;51.450;-2.624;2024-03-06T11:01:04;12.40;99.90
24148;DHT22;12309;51.450;-2.624;2024-03-06T11:03:31;16.20;99.90
24148;DHT22;12309;51.450;-2.624;2024-03-06T11:05:57;16.90;99.90
24148;DHT22;12309;51.450;-2.624;2024-03-06T11:08:23;17.20;99.90
24148;DHT22;12309;51.450;-2.624;2024-03-06T11:10:50;16.10;99.90
24148;DHT22;12309;51.450;-2.624;2024-03-06T11:15:46;17.30;99.90
24148;DHT22;12309;51.450;-2.624;2024-03-06T11:23:32;17.50;99.90
24148;DHT22;12309;51.450;-2.624;2024-03-06T11:26:03;17.40;99.90
24148;DHT22;12309;51.450;-2.624;2024-03-06T11:28:32;19.60;99.90
24148;DHT22;12309;51.450;-2.624;2024-03-06T11:31:06;19.60;99.90
24148;DHT22;12309;51.450;-2.624;2024-03-06T11:33:40;19.40;99.90
24148;DHT22;12309;51.450;-2.624;2024-03-06T11:36:22;20.20;99.90
24148;DHT22;12309;51.450;-2.624;2024-03-06T11:38:57;19.70;99.90
24148;DHT22;12309;51.450;-2.624;2024-03-06T11:41:31;21.20;99.90
24148;DHT22;12309;51.450;-2.624;2024-03-06T11:44:00;20.20;99.90
24148;DHT22;12309;51.450;-2.624;2024-03-06T11:46:46;18.90;99.90
24148;DHT22;12309;51.450;-2.624;2024-03-06T11:49:50;21.80;99.90
24148;DHT22;12309;51.450;-2.624;2024-03-06T11:52:09;21.70;99.90
24148;DHT22;12309;51.450;-2.624;2024-03-06T11:54:36;20.60;99.90
24148;DHT22;12309;51.450;-2.624;2024-03-06T11:57:03;22.40;99.90
24148;DHT22;12309;51.450;-2.624;2024-03-06T11:59:30;22.70;99.90
24148;DHT22;12309;51.450;-2.624;2024-03-06T12:01:58;22.90;99.90
24148;DHT22;12309;51.450;-2.624;2024-03-06T12:04:27;21.00;99.90
24148;DHT22;12309;51.450;-2.624;2024-03-06T12:06:57;21.90;99.90
24148;DHT22;12309;51.450;-2.624;2024-03-06T12:09:24;21.60;99.90
24148;DHT22;12309;51.450;-2.624;2024-03-06T12:11:50;21.60;99.90
24148;DHT22;12309;51.450;-2.624;2024-03-06T12:14:19;22.40;99.90
24148;DHT22;12309;51.450;-2.624;2024-03-06T12:16:58;21.40;99.90
24148;DHT22;12309;51.450;-2.624;2024-03-06T12:19:34;22.10;99.90
24148;DHT22;12309;51.450;-2.624;2024-03-06T12:22:04;20.00;99.90
24148;DHT22;12309;51.450;-2.624;2024-03-06T12:24:30;20.00;99.90
24148;DHT22;12309;51.450;-2.624;2024-03-06T12:27:03;19.90;99.90
24148;DHT22;12309;51.450;-2.624;2024-03-06T12:29:30;21.40;99.90
24148;DHT22;12309;51.450;-2.624;2024-03-06T12:32:01;20.40;99.90
24148;DHT22;12309;51.450;-2.624;2024-03-06T12:36:53;21.90;99.90
24148;DHT22;12309;51.450;-2.624;2024-03-06T12:39:18;19.60;5.80
24148;DHT22;12309;51.450;-2.624;2024-03-06T12:41:51;19.30;57.80
24148;DHT22;12309;51.450;-2.624;2024-03-06T12:44:17;20.60;50.50
24148;DHT22;12309;51.450;-2.624;2024-03-06T12:46:43;20.70;1.00
24148;DHT22;12309;51.450;-2.624;2024-03-06T12:49:08;21.90;72.60
24148;DHT22;12309;51.450;-2.624;2024-03-06T12:51:34;22.60;91.90
24148;DHT22;12309;51.450;-2.624;2024-03-06T12:54:00;21.50;1.00
24148;DHT22;12309;51.450;-2.624;2024-03-06T12:56:26;21.20;1.00
24148;DHT22;12309;51.450;-2.624;2024-03-06T12:58:52;21.00;99.90
24148;DHT22;12309;51.450;-2.624;2024-03-06T13:01:18;20.40;99.90
24148;DHT22;12309;51.450;-2.624;2024-03-06T13:03:46;19.90;1.00
24148;DHT22;12309;51.450;-2.624;2024-03-06T13:06:12;18.50;1.00
24148;DHT22;12309;51.450;-2.624;2024-03-06T13:08:38;17.90;1.00
24148;DHT22;12309;51.450;-2.624;2024-03-06T13:11:04;17.90;99.90
24148;DHT22;12309;51.450;-2.624;2024-03-06T13:13:30;18.40;99.90
24148;DHT22;12309;51.450;-2.624;2024-03-06T13:15:58;20.10;99.90
24148;DHT22;12309;51.450;-2.624;2024-03-06T13:18:24;20.50;99.90
24148;DHT22;12309;51.450;-2.624;2024-03-06T13:20:51;20.40;99.90
24148;DHT22;12309;51.450;-2.624;2024-03-06T13:23:17;20.50;1.00
24148;DHT22;12309;51.450;-2.624;2024-03-06T13:25:43;20.80;1.00
24148;DHT22;12309;51.450;-2.624;2024-03-06T13:28:09;19.10;1.00
24148;DHT22;12309;51.450;-2.624;2024-03-06T13:30:35;19.30;99.90
24148;DHT22;12309;51.450;-2.624;2024-03-06T13:33:01;19.30;99.90
24148;DHT22;12309;51.450;-2.624;2024-03-06T13:37:54;19.40;99.90
24148;DHT22;12309;51.450;-2.624;2024-03-06T13:40:19;20.60;99.90
24148;DHT22;12309;51.450;-2.624;2024-03-06T13:42:45;19.90;1.00
24148;DHT22;12309;51.450;-2.624;2024-03-06T13:45:11;20.20;1.00
24148;DHT22;12309;51.450;-2.624;2024-03-06T13:47:41;20.10;1.00
24148;DHT22;12309;51.450;-2.624;2024-03-06T13:50:16;20.00;1.00
24148;DHT22;12309;51.450;-2.624;2024-03-06T13:55:10;18.40;99.90
24148;DHT22;12309;51.450;-2.624;2024-03-06T13:57:37;17.70;99.90
24148;DHT22;12309;51.450;-2.624;2024-03-06T14:00:03;17.80;99.90
24148;DHT22;12309;51.450;-2.624;2024-03-06T14:02:31;18.50;1.00
24148;DHT22;12309;51.450;-2.624;2024-03-06T14:04:56;17.70;99.90
24148;DHT22;12309;51.450;-2.624;2024-03-06T14:07:22;17.90;99.90
24148;DHT22;12309;51.450;-2.624;2024-03-06T14:09:51;18.90;99.90
24148;DHT22;12309;51.450;-2.624;2024-03-06T14:14:43;17.90;99.90
24148;DHT22;12309;51.450;-2.624;2024-03-06T14:17:11;18.80;99.90
24148;DHT22;12309;51.450;-2.624;2024-03-06T14:19:38;20.00;99.90
24148;DHT22;12309;51.450;-2.624;2024-03-06T14:22:04;20.20;1.00
24148;DHT22;12309;51.450;-2.624;2024-03-06T14:24:30;20.20;1.00
24148;DHT22;12309;51.450;-2.624;2024-03-06T14:26:56;19.70;99.90
24148;DHT22;12309;51.450;-2.624;2024-03-06T14:29:21;19.70;1.00
24148;DHT22;12309;51.450;-2.624;2024-03-06T14:36:39;19.00;99.90
24148;DHT22;12309;51.450;-2.624;2024-03-06T14:39:05;19.30;99.90
24148;DHT22;12309;51.450;-2.624;2024-03-06T14:43:57;19.80;1.00
24148;DHT22;12309;51.450;-2.624;2024-03-06T14:46:23;20.80;1.00
24148;DHT22;12309;51.450;-2.624;2024-03-06T14:48:48;20.80;99.90
24148;DHT22;12309;51.450;-2.624;2024-03-06T14:51:14;21.80;99.90
24148;DHT22;12309;51.450;-2.624;2024-03-06T14:53:40;20.10;99.90
24148;DHT22;12309;51.450;-2.624;2024-03-06T14:56:07;20.20;99.90
24148;DHT22;12309;51.450;-2.624;2024-03-06T14:58:32;20.20;99.90
24148;DHT22;12309;51.450;-2.624;2024-03-06T15:00:58;19.30;99.90
24148;DHT22;12309;51.450;-2.624;2024-03-06T15:03:23;18.20;1.00
24148;DHT22;12309;51.450;-2.624;2024-03-06T15:05:49;18.30;99.90
24148;DHT22;12309;51.450;-2.624;2024-03-06T15:08:15;17.00;99.90
24148;DHT22;12309;51.450;-2.624;2024-03-06T15:10:41;15.70;99.90
24148;DHT22;12309;51.450;-2.624;2024-03-06T15:13:06;15.70;99.90
24148;DHT22;12309;51.450;-2.624;2024-03-06T15:15:36;15.60;99.90
24148;DHT22;12309;51.450;-2.624;2024-03-06T15:18:01;15.10;1.00
24148;DHT22;12309;51.450;-2.624;2024-03-06T15:22:53;14.50;1.00
24148;DHT22;12309;51.450;-2.624;2024-03-06T15:25:19;14.20;99.70
24148;DHT22;12309;51.450;-2.624;2024-03-06T15:27:45;16.70;1.00
24148;DHT22;12309;51.450;-2.624;2024-03-06T15:30:12;16.70;1.00
24148;DHT22;12309;51.450;-2.624;2024-03-06T15:32:39;17.60;1.00
24148;DHT22;12309;51.450;-2.624;2024-03-06T15:35:05;17.90;1.00
24148;DHT22;12309;51.450;-2.624;2024-03-06T15:37:31;18.40;20.90
24148;DHT22;12309;51.450;-2.624;2024-03-06T15:39:57;18.80;99.90
24148;DHT22;12309;51.450;-2.624;2024-03-06T15:42:24;18.70;99.90
24148;DHT22;12309;51.450;-2.624;2024-03-06T15:44:50;18.70;99.90
24148;DHT22;12309;51.450;-2.624;2024-03-06T15:47:17;18.30;99.90
24148;DHT22;12309;51.450;-2.624;2024-03-06T15:49:43;18.50;1.00
24148;DHT22;12309;51.450;-2.624;2024-03-06T15:52:10;19.40;5.60
24148;DHT22;12309;51.450;-2.624;2024-03-06T15:54:36;18.60;99.90
24148;DHT22;12309;51.450;-2.624;2024-03-06T15:57:03;18.20;99.90
24148;DHT22;12309;51.450;-2.624;2024-03-06T15:59:29;18.60;99.90
24148;DHT22;12309;51.450;-2.624;2024-03-06T16:01:56;18.00;99.90
24148;DHT22;12309;51.450;-2.624;2024-03-06T16:04:22;16.70;1.00
24148;DHT22;12309;51.450;-2.624;2024-03-06T16:06:48;16.70;1.00
24148;DHT22;12309;51.450;-2.624;2024-03-06T16:09:14;16.10;1.00
24148;DHT22;12309;51.450;-2.624;2024-03-06T16:11:40;15.70;1.00
24148;DHT22;12309;51.450;-2.624;2024-03-06T16:14:06;15.80;99.90
24148;DHT22;12309;51.450;-2.624;2024-03-06T16:16:32;15.90;99.90
24148;DHT22;12309;51.450;-2.624;2024-03-06T16:18:57;15.90;99.90
24148;DHT22;12309;51.450;-2.624;2024-03-06T16:21:24;16.00;99.90
24148;DHT22;12309;51.450;-2.624;2024-03-06T16:23:50;16.20;99.90
24148;DHT22;12309;51.450;-2.624;2024-03-06T16:26:16;15.00;1.00
24148;DHT22;12309;51.450;-2.624;2024-03-06T16:28:45;14.50;99.90
24148;DHT22;12309;51.450;-2.624;2024-03-06T16:31:11;14.30;1.00
24148;DHT22;12309;51.450;-2.624;2024-03-06T16:33:37;14.40;99.90
24148;DHT22;12309;51.450;-2.624;2024-03-06T16:36:03;13.60;99.90
24148;DHT22;12309;51.450;-2.624;2024-03-06T16:38:28;12.90;99.90
24148;DHT22;12309;51.450;-2.624;2024-03-06T16:40:56;13.40;99.90
24148;DHT22;12309;51.450;-2.624;2024-03-06T16:43:22;12.90;1.00
24148;DHT22;12309;51.450;-2.624;2024-03-06T16:45:48;12.80;99.90
24148;DHT22;12309;51.450;-2.624;2024-03-06T16:48:14;12.60;1.00
24148;DHT22;12309;51.450;-2.624;2024-03-06T16:50:39;12.50;99.90
24148;DHT22;12309;51.450;-2.624;2024-03-06T16:53:05;12.30;99.90
24148;DHT22;12309;51.450;-2.624;2024-03-06T16:55:34;12.30;99.90
24148;DHT22;12309;51.450;-2.624;2024-03-06T16:58:01;12.30;99.90
24148;DHT22;12309;51.450;-2.624;2024-03-06T17:00:26;12.20;99.90
24148;DHT22;12309;51.450;-2.624;2024-03-06T17:02:52;12.00;99.90
24148;DHT22;12309;51.450;-2.624;2024-03-06T17:05:21;12.10;1.00